createdAt,value
2019-04-29T00:00:57.101Z,102373.98
2019-04-29T00:01:56.931Z,102374.16
2019-04-29T00:02:57.592Z,102374.56
2019-04-29T00:03:58.393Z,102374.88
2019-04-29T00:05:00.424Z,102374.98
2019-04-29T00:06:01.315Z,102375.48
2019-04-29T00:07:02.425Z,102375.54
2019-04-29T00:08:01.890Z,102375.72
2019-04-29T00:09:03.423Z,102375.78
2019-04-29T00:10:03.918Z,102376.38
2019-04-29T00:11:03.948Z,102376.70
2019-04-29T00:12:04.506Z,102376.67
2019-04-29T00:13:05.519Z,102376.85
2019-04-29T00:14:06.330Z,102376.91
2019-04-29T00:15:07.306Z,102377.16
2019-04-29T00:16:06.356Z,102377.23
2019-04-29T00:17:07.134Z,102377.66
2019-04-29T00:18:08.130Z,102377.97
2019-04-29T00:19:08.329Z,102378.38
2019-04-29T00:20:08.467Z,102378.88
2019-04-29T00:21:09.274Z,102379.52
2019-04-29T00:22:10.031Z,102380.03
2019-04-29T00:23:11.802Z,102380.27
2019-04-29T00:24:12.028Z,102380.86
2019-04-29T00:25:12.503Z,102381.26
2019-04-29T00:26:13.068Z,102382.02
2019-04-29T00:27:13.720Z,102382.44
2019-04-29T00:28:13.552Z,102382.48
2019-04-29T00:29:14.880Z,102383.09
2019-04-29T00:30:14.745Z,102383.48
2019-04-29T00:31:14.959Z,102384.09
2019-04-29T00:32:15.840Z,102384.59
2019-04-29T00:33:17.211Z,102385.31
2019-04-29T00:33:26.323Z,102389.28
2019-04-29T00:34:27.675Z,102392.13
2019-04-29T00:35:28.658Z,102392.03
2019-04-29T00:36:29.279Z,102391.77
2019-04-29T00:37:30.064Z,102391.70
2019-04-29T00:38:30.197Z,102391.37
2019-04-29T00:39:30.573Z,102391.27
2019-04-29T00:40:31.155Z,102391.78
2019-04-29T00:41:31.857Z,102391.67
2019-04-29T00:42:32.558Z,102391.86
2019-04-29T00:43:33.078Z,102391.86
2019-04-29T00:44:33.607Z,102391.16
2019-04-29T00:45:34.294Z,102391.31
2019-04-29T00:46:35.070Z,102391.24
2019-04-29T00:47:35.571Z,102391.12
2019-04-29T00:48:35.690Z,102390.95
2019-04-29T00:49:36.234Z,102391.14
2019-04-29T00:50:36.037Z,102391.45
2019-04-29T00:51:36.682Z,102391.30
2019-04-29T00:52:38.205Z,102391.38
2019-04-29T00:53:38.722Z,102391.96
2019-04-29T00:54:39.237Z,102392.27
2019-04-29T00:55:39.742Z,102392.27
2019-04-29T00:56:40.321Z,102392.09
2019-04-29T00:57:40.857Z,102392.34
2019-04-29T00:58:41.494Z,102392.00
2019-04-29T00:59:41.955Z,102391.76
2019-04-29T01:00:42.636Z,102391.91
2019-04-29T01:01:43.340Z,102391.91
2019-04-29T01:02:42.928Z,102391.98
2019-04-29T01:03:44.034Z,102392.30
2019-04-29T01:04:44.116Z,102392.14
2019-04-29T01:05:44.511Z,102393.21
2019-04-29T01:06:45.302Z,102393.38
2019-04-29T01:07:46.292Z,102393.80
2019-04-29T01:08:46.467Z,102393.90
2019-04-29T01:09:47.418Z,102394.05
2019-04-29T01:10:48.381Z,102394.47
2019-04-29T01:11:48.851Z,102394.65
2019-04-29T01:12:49.612Z,102395.25
2019-04-29T01:13:50.222Z,102395.27
2019-04-29T01:14:50.753Z,102395.27
2019-04-29T01:15:51.384Z,102395.62
2019-04-29T01:16:51.863Z,102395.89
2019-04-29T01:17:52.358Z,102395.70
2019-04-29T01:18:53.035Z,102395.87
2019-04-29T01:19:03.917Z,102405.71
2019-04-29T01:20:01.613Z,102400.50
2019-04-29T01:21:03.189Z,102400.42
2019-04-29T01:22:03.867Z,102400.34
2019-04-29T01:23:04.506Z,102400.26
2019-04-29T01:24:05.326Z,102400.11
2019-04-29T01:25:05.952Z,102400.43
2019-04-29T01:26:06.532Z,102400.52
2019-04-29T01:27:07.327Z,102400.27
2019-04-29T01:28:07.839Z,102400.88
2019-04-29T01:29:08.405Z,102401.13
2019-04-29T01:30:08.902Z,102401.63
2019-04-29T01:31:09.416Z,102401.97
2019-04-29T01:32:09.061Z,102402.36
2019-04-29T01:33:10.572Z,102402.45
2019-04-29T01:34:11.095Z,102402.45
2019-04-29T01:35:11.718Z,102402.89
2019-04-29T01:36:12.292Z,102403.13
2019-04-29T01:37:12.821Z,102403.13
2019-04-29T01:38:13.454Z,102403.20
2019-04-29T01:39:13.002Z,102403.36
2019-04-29T01:40:14.663Z,102403.36
2019-04-29T01:41:15.143Z,102403.80
2019-04-29T01:42:15.639Z,102404.38
2019-04-29T01:43:16.173Z,102404.73
2019-04-29T01:44:16.692Z,102405.06
2019-04-29T01:45:17.252Z,102405.98
2019-04-29T01:46:17.444Z,102406.48
2019-04-29T01:47:17.980Z,102406.55
2019-04-29T01:48:18.563Z,102407.33
2019-04-29T01:49:18.229Z,102408.23
2019-04-29T01:50:19.749Z,102409.05
2019-04-29T01:51:20.683Z,102409.80
2019-04-29T01:52:21.423Z,102410.66
2019-04-29T01:53:21.903Z,102410.97
2019-04-29T01:54:22.633Z,102411.88
2019-04-29T01:55:23.261Z,102412.38
2019-04-29T01:56:22.871Z,102413.02
2019-04-29T01:57:24.507Z,102413.61
2019-04-29T01:58:25.263Z,102413.92
2019-04-29T01:59:25.772Z,102414.67
2019-04-29T02:00:26.744Z,102415.31
2019-04-29T02:01:27.339Z,102415.65
2019-04-29T02:02:27.953Z,102416.71
2019-04-29T02:03:28.668Z,102417.54
2019-04-29T02:04:28.217Z,102418.47
2019-04-29T02:05:29.748Z,102419.61
2019-04-29T02:06:30.297Z,102420.94
2019-04-29T02:07:30.788Z,102422.13
2019-04-29T02:07:39.329Z,102443.05
2019-04-29T02:08:40.875Z,102438.72
2019-04-29T02:09:41.377Z,102438.62
2019-04-29T02:10:42.200Z,102438.71
2019-04-29T02:11:42.761Z,102438.45
2019-04-29T02:12:42.822Z,102438.39
2019-04-29T02:13:43.289Z,102438.62
2019-04-29T02:14:44.048Z,102438.88
2019-04-29T02:15:44.160Z,102439.05
2019-04-29T02:16:44.678Z,102439.29
2019-04-29T02:17:45.277Z,102439.06
2019-04-29T02:18:44.810Z,102439.03
2019-04-29T02:19:47.382Z,102439.45
2019-04-29T02:20:46.831Z,102439.20
2019-04-29T02:21:47.368Z,102439.27
2019-04-29T02:22:47.898Z,102439.33
2019-04-29T02:23:48.517Z,102438.81
2019-04-29T02:24:49.154Z,102438.41
2019-04-29T02:25:49.821Z,102437.88
2019-04-29T02:26:50.388Z,102437.97
2019-04-29T02:27:50.977Z,102438.37
2019-04-29T02:28:51.607Z,102438.09
2019-04-29T02:29:52.506Z,102437.69
2019-04-29T02:30:53.108Z,102437.48
2019-04-29T02:31:52.824Z,102436.75
2019-04-29T02:32:54.509Z,102436.14
2019-04-29T02:33:55.490Z,102435.62
2019-04-29T02:34:56.474Z,102434.85
2019-04-29T02:35:56.901Z,102434.78
2019-04-29T02:36:57.424Z,102433.91
2019-04-29T02:37:57.967Z,102433.89
2019-04-29T02:38:57.600Z,102433.82
2019-04-29T02:39:59.348Z,102433.13
2019-04-29T02:41:00.141Z,102432.77
2019-04-29T02:42:00.626Z,102432.52
2019-04-29T02:43:01.189Z,102432.12
2019-04-29T02:44:02.103Z,102431.84
2019-04-29T02:45:03.223Z,102431.66
2019-04-29T02:46:02.563Z,102431.32
2019-04-29T02:47:03.496Z,102431.30
2019-04-29T02:48:04.123Z,102431.46
2019-04-29T02:49:06.096Z,102431.71
2019-04-29T02:50:06.845Z,102431.62
2019-04-29T02:51:07.486Z,102431.70
2019-04-29T02:52:08.018Z,102431.61
2019-04-29T02:53:08.053Z,102431.44
2019-04-29T02:54:08.565Z,102431.44
2019-04-29T02:55:09.241Z,102431.04
2019-04-29T02:56:09.813Z,102430.52
2019-04-29T02:57:10.445Z,102430.70
2019-04-29T02:57:18.971Z,102434.36
2019-04-29T02:58:19.455Z,102434.20
2019-04-29T02:59:21.247Z,102433.86
2019-04-29T03:00:21.868Z,102433.95
2019-04-29T03:01:22.433Z,102433.89
2019-04-29T03:02:22.906Z,102433.98
2019-04-29T03:03:23.710Z,102433.90
2019-04-29T03:04:24.269Z,102434.06
2019-04-29T03:05:24.824Z,102433.80
2019-04-29T03:06:25.481Z,102433.73
2019-04-29T03:07:25.984Z,102433.96
2019-04-29T03:08:26.513Z,102434.13
2019-04-29T03:09:26.993Z,102434.15
2019-04-29T03:10:27.613Z,102434.53
2019-04-29T03:11:28.066Z,102434.70
2019-04-29T03:12:28.589Z,102434.35
2019-04-29T03:13:29.346Z,102434.35
2019-04-29T03:14:29.907Z,102434.29
2019-04-29T03:15:31.352Z,102434.00
2019-04-29T03:16:31.893Z,102433.84
2019-04-29T03:17:31.311Z,102433.69
2019-04-29T03:18:32.041Z,102433.86
2019-04-29T03:19:33.638Z,102433.52
2019-04-29T03:20:32.149Z,102433.25
2019-04-29T03:21:33.667Z,102433.34
2019-04-29T03:22:33.223Z,102433.11
2019-04-29T03:23:34.769Z,102433.09
2019-04-29T03:24:35.268Z,102433.43
2019-04-29T03:25:35.825Z,102433.69
2019-04-29T03:26:36.297Z,102433.19
2019-04-29T03:27:36.780Z,102433.69
2019-04-29T03:28:37.294Z,102433.36
2019-04-29T03:29:37.851Z,102433.27
2019-04-29T03:30:38.672Z,102433.34
2019-04-29T03:31:40.048Z,102433.50
2019-04-29T03:32:39.083Z,102433.77
2019-04-29T03:33:39.514Z,102434.19
2019-04-29T03:34:41.000Z,102434.45
2019-04-29T03:35:41.779Z,102434.85
2019-04-29T03:36:42.299Z,102435.70
2019-04-29T03:37:42.756Z,102436.30
2019-04-29T03:38:42.915Z,102436.47
2019-04-29T03:39:43.404Z,102436.03
2019-04-29T03:40:43.802Z,102436.48
2019-04-29T03:41:45.558Z,102436.64
2019-04-29T03:42:45.068Z,102437.31
2019-04-29T03:43:45.102Z,102437.05
2019-04-29T03:44:45.570Z,102437.22
2019-04-29T03:44:54.179Z,102447.45
2019-04-29T03:45:55.121Z,102446.73
2019-04-29T03:46:56.773Z,102446.39
2019-04-29T03:47:57.214Z,102446.39
2019-04-29T03:48:57.835Z,102446.12
2019-04-29T03:49:58.450Z,102446.14
2019-04-29T03:50:58.944Z,102445.73
2019-04-29T03:51:59.505Z,102445.73
2019-04-29T03:52:59.979Z,102446.48
2019-04-29T03:54:00.457Z,102446.73
2019-04-29T03:55:00.902Z,102446.75
2019-04-29T03:56:00.437Z,102446.91
2019-04-29T03:57:01.163Z,102446.84
2019-04-29T03:58:02.846Z,102446.84
2019-04-29T03:59:03.551Z,102447.10
2019-04-29T04:00:04.067Z,102446.94
2019-04-29T04:01:05.045Z,102447.36
2019-04-29T04:02:05.641Z,102447.76
2019-04-29T04:03:06.171Z,102448.12
2019-04-29T04:04:05.618Z,102448.52
2019-04-29T04:05:07.233Z,102448.69
2019-04-29T04:06:08.086Z,102449.42
2019-04-29T04:08:08.006Z,102449.84
2019-04-29T04:09:09.476Z,102450.42
2019-04-29T04:10:09.607Z,102451.02
2019-04-29T04:11:10.171Z,102451.27
2019-04-29T04:12:10.714Z,102451.84
2019-04-29T04:13:11.366Z,102452.02
2019-04-29T04:14:11.465Z,102452.16
2019-04-29T04:15:12.172Z,102453.09
2019-04-29T04:16:12.724Z,102453.67
2019-04-29T04:17:13.314Z,102454.58
2019-04-29T04:18:12.820Z,102455.41
2019-04-29T04:19:13.334Z,102455.81
2019-04-29T04:20:14.864Z,102455.98
2019-04-29T04:21:15.802Z,102456.06
2019-04-29T04:22:16.213Z,102456.56
2019-04-29T04:23:17.035Z,102456.86
2019-04-29T04:24:16.643Z,102457.77
2019-04-29T04:25:18.119Z,102458.27
2019-04-29T04:26:18.665Z,102459.02
2019-04-29T04:27:19.225Z,102459.66
2019-04-29T04:28:19.678Z,102460.58
2019-04-29T04:29:20.272Z,102461.66
2019-04-29T04:30:20.894Z,102462.39
2019-04-29T04:31:20.441Z,102463.23
2019-04-29T04:32:21.910Z,102464.55
2019-04-29T04:33:22.434Z,102465.62
2019-04-29T04:34:22.914Z,102466.22
2019-04-29T04:35:23.450Z,102467.13
2019-04-29T04:36:23.927Z,102467.81
2019-04-29T04:37:24.464Z,102468.64
2019-04-29T04:37:32.995Z,102488.84
2019-04-29T04:38:34.554Z,102488.74
2019-04-29T04:39:35.210Z,102488.41
2019-04-29T04:40:35.768Z,102488.41
2019-04-29T04:41:35.320Z,102488.17
2019-04-29T04:42:36.995Z,102488.19
2019-04-29T04:43:37.567Z,102488.92
2019-04-29T04:44:38.151Z,102489.19
2019-04-29T04:45:38.651Z,102489.17
2019-04-29T04:46:38.676Z,102488.87
2019-04-29T04:47:38.748Z,102489.02
2019-04-29T04:48:39.457Z,102488.95
2019-04-29T04:49:39.415Z,102489.81
2019-04-29T04:50:40.582Z,102490.47
2019-04-29T04:51:40.805Z,102490.33
2019-04-29T04:52:41.656Z,102490.58
2019-04-29T04:53:42.246Z,102490.66
2019-04-29T04:54:46.136Z,102490.84
2019-04-29T04:55:43.867Z,102490.86
2019-04-29T04:56:44.465Z,102491.04
2019-04-29T04:57:45.069Z,102491.05
2019-04-29T04:58:45.616Z,102491.46
2019-04-29T04:59:46.113Z,102491.81
2019-04-29T05:00:46.581Z,102492.56
2019-04-29T05:01:47.083Z,102493.34
2019-04-29T05:02:47.562Z,102493.77
2019-04-29T05:03:48.262Z,102494.68
2019-04-29T05:04:48.750Z,102495.64
2019-04-29T05:05:49.244Z,102496.89
2019-04-29T05:06:49.966Z,102497.72
2019-04-29T05:07:50.630Z,102498.22
2019-04-29T05:08:51.148Z,102498.97
2019-04-29T05:09:51.675Z,102500.22
2019-04-29T05:10:52.329Z,102500.87
2019-04-29T05:11:52.886Z,102501.52
2019-04-29T05:12:53.365Z,102502.41
2019-04-29T05:13:53.900Z,102503.07
2019-04-29T05:14:54.526Z,102503.98
2019-04-29T05:15:53.993Z,102504.31
2019-04-29T05:16:55.461Z,102505.05
2019-04-29T05:17:56.158Z,102505.34
2019-04-29T05:18:56.701Z,102506.34
2019-04-29T05:19:57.271Z,102507.06
2019-04-29T05:20:57.883Z,102507.73
2019-04-29T05:21:58.378Z,102508.29
2019-04-29T05:22:06.985Z,102521.55
2019-04-29T05:23:08.491Z,102520.95
2019-04-29T05:24:09.024Z,102520.46
2019-04-29T05:25:09.604Z,102520.44
2019-04-29T05:26:10.497Z,102519.95
2019-04-29T05:27:10.995Z,102519.78
2019-04-29T05:28:11.664Z,102519.88
2019-04-29T05:29:12.276Z,102520.30
2019-04-29T05:30:12.753Z,102520.29
2019-04-29T05:31:13.292Z,102520.12
2019-04-29T05:32:14.178Z,102520.48
2019-04-29T05:33:14.762Z,102521.23
2019-04-29T05:34:15.331Z,102521.58
2019-04-29T05:35:16.054Z,102521.84
2019-04-29T05:36:17.013Z,102522.02
2019-04-29T05:37:17.525Z,102522.80
2019-04-29T05:38:17.962Z,102522.88
2019-04-29T05:39:18.388Z,102523.31
2019-04-29T05:40:18.962Z,102523.84
2019-04-29T05:41:19.045Z,102524.52
2019-04-29T05:42:19.439Z,102525.56
2019-04-29T05:43:20.288Z,102526.83
2019-04-29T05:44:20.815Z,102527.17
2019-04-29T05:45:21.450Z,102528.20
2019-04-29T05:46:23.262Z,102528.49
2019-04-29T05:47:21.894Z,102529.08
2019-04-29T05:48:27.328Z,102529.78
2019-04-29T05:49:23.297Z,102530.48
2019-04-29T05:50:24.863Z,102530.58
2019-04-29T05:51:27.326Z,102531.58
2019-04-29T05:52:25.438Z,102532.72
2019-04-29T05:53:27.092Z,102533.12
2019-04-29T05:54:31.809Z,102533.91
2019-04-29T05:55:27.216Z,102534.58
2019-04-29T05:56:29.181Z,102534.92
2019-04-29T05:57:29.647Z,102536.38
2019-04-29T05:58:33.016Z,102537.38
2019-04-29T05:59:29.261Z,102537.75
2019-04-29T06:01:12.064Z,102548.36
2019-04-29T06:02:13.753Z,102547.92
2019-04-29T06:03:14.341Z,102548.42
2019-04-29T06:04:16.355Z,102548.50
2019-04-29T06:05:14.437Z,102548.50
2019-04-29T06:06:15.960Z,102548.83
2019-04-29T06:07:16.906Z,102548.66
2019-04-29T06:08:16.080Z,102548.66
2019-04-29T06:09:18.424Z,102548.59
2019-04-29T06:10:18.249Z,102549.34
2019-04-29T06:11:18.377Z,102550.04
2019-04-29T06:12:20.095Z,102550.13
2019-04-29T06:13:20.667Z,102550.36
2019-04-29T06:14:22.310Z,102550.55
2019-04-29T06:15:21.286Z,102551.23
2019-04-29T06:16:22.695Z,102551.31
2019-04-29T06:17:22.265Z,102551.75
2019-04-29T06:18:23.887Z,102552.19
2019-04-29T06:19:23.372Z,102552.54
2019-04-29T06:20:24.930Z,102552.72
2019-04-29T06:21:25.585Z,102553.30
2019-04-29T06:22:26.003Z,102553.55
2019-04-29T06:23:26.444Z,102554.05
2019-04-29T06:24:27.194Z,102554.66
2019-04-29T06:25:28.159Z,102555.07
2019-04-29T06:26:28.602Z,102555.50
2019-04-29T06:27:29.255Z,102555.87
2019-04-29T06:28:29.787Z,102556.28
2019-04-29T06:29:30.644Z,102556.64
2019-04-29T06:30:31.114Z,102557.17
2019-04-29T06:31:31.706Z,102556.94
2019-04-29T06:32:31.431Z,102557.60
2019-04-29T06:33:33.058Z,102557.89
2019-04-29T06:34:35.620Z,102558.32
2019-04-29T06:35:33.192Z,102558.66
2019-04-29T06:36:35.023Z,102558.68
2019-04-29T06:37:34.439Z,102558.61
2019-04-29T06:38:36.300Z,102559.88
2019-04-29T06:39:36.983Z,102560.16
2019-04-29T06:40:37.478Z,102560.53
2019-04-29T06:41:40.743Z,102561.30
2019-04-29T06:42:37.281Z,102561.91
2019-04-29T06:43:38.510Z,102562.62
2019-04-29T06:44:39.011Z,102563.12
2019-04-29T06:45:39.606Z,102563.91
2019-04-29T06:46:40.082Z,102564.78
2019-04-29T06:47:40.584Z,102565.55
2019-04-29T06:48:41.167Z,102565.99
2019-04-29T06:49:41.739Z,102566.75
2019-04-29T06:50:42.388Z,102567.30
2019-04-29T06:51:43.108Z,102567.90
2019-04-29T06:52:44.006Z,102568.17
2019-04-29T06:53:47.695Z,102569.03
2019-04-29T06:54:44.017Z,102569.40
2019-04-29T06:55:45.558Z,102569.53
2019-04-29T06:55:54.165Z,102583.02
2019-04-29T06:56:54.635Z,102582.13
2019-04-29T06:57:56.075Z,102582.28
2019-04-29T06:58:56.550Z,102583.03
2019-04-29T06:59:57.375Z,102583.03
2019-04-29T07:01:01.125Z,102582.97
2019-04-29T07:01:57.790Z,102582.53
2019-04-29T07:02:59.387Z,102582.13
2019-04-29T07:04:00.154Z,102581.83
2019-04-29T07:04:59.124Z,102581.98
2019-04-29T07:06:00.732Z,102582.27
2019-04-29T07:07:01.327Z,102582.02
2019-04-29T07:08:01.865Z,102581.92
2019-04-29T07:09:02.394Z,102581.45
2019-04-29T07:10:02.938Z,102580.95
2019-04-29T07:11:03.514Z,102581.12
2019-04-29T07:12:03.212Z,102581.46
2019-04-29T07:13:04.803Z,102580.88
2019-04-29T07:14:05.322Z,102580.91
2019-04-29T07:15:07.624Z,102580.81
2019-04-29T07:16:04.884Z,102580.91
2019-04-29T07:17:07.258Z,102580.58
2019-04-29T07:18:06.193Z,102580.49
2019-04-29T07:19:07.801Z,102580.51
2019-04-29T07:20:08.366Z,102580.26
2019-04-29T07:21:11.853Z,102579.84
2019-04-29T07:22:08.598Z,102579.27
2019-04-29T07:23:10.405Z,102579.28
2019-04-29T07:24:11.363Z,102578.80
2019-04-29T07:25:11.922Z,102578.06
2019-04-29T07:26:12.714Z,102577.55
2019-04-29T07:27:13.464Z,102577.59
2019-04-29T07:28:13.813Z,102576.91
2019-04-29T07:29:13.492Z,102576.27
2019-04-29T07:30:14.520Z,102576.27
2019-04-29T07:31:14.989Z,102576.13
2019-04-29T07:32:15.569Z,102576.22
2019-04-29T07:33:22.111Z,102576.30
2019-04-29T07:34:15.917Z,102576.89
2019-04-29T07:35:17.504Z,102577.16
2019-04-29T07:36:18.624Z,102577.24
2019-04-29T07:37:17.619Z,102577.34
2019-04-29T07:38:19.264Z,102578.52
2019-04-29T07:39:19.960Z,102578.67
2019-04-29T07:40:20.473Z,102579.02
2019-04-29T07:41:21.101Z,102579.45
2019-04-29T07:42:25.086Z,102580.11
2019-04-29T07:43:21.519Z,102580.29
2019-04-29T07:44:23.079Z,102580.28
2019-04-29T07:45:28.007Z,102580.30
2019-04-29T07:46:23.363Z,102580.78
2019-04-29T07:47:24.949Z,102580.64
2019-04-29T07:48:25.064Z,102581.05
2019-04-29T07:49:26.871Z,102580.55
2019-04-29T07:50:28.486Z,102580.61
2019-04-29T07:51:26.891Z,102580.28
2019-04-29T07:51:39.452Z,102580.14
2019-04-29T07:52:37.068Z,102579.55
2019-04-29T07:53:45.029Z,102579.21
2019-04-29T07:54:37.696Z,102578.95
2019-04-29T07:55:39.618Z,102578.08
2019-04-29T07:56:42.321Z,102577.30
2019-04-29T07:57:39.829Z,102576.70
2019-04-29T07:58:41.635Z,102576.20
2019-04-29T07:59:42.439Z,102575.68
2019-04-29T08:00:44.567Z,102575.02
2019-04-29T08:01:42.981Z,102574.31
2019-04-29T08:02:44.805Z,102573.90
2019-04-29T08:03:45.436Z,102573.13
2019-04-29T08:04:45.988Z,102572.25
2019-04-29T08:05:46.648Z,102571.64
2019-04-29T08:06:47.166Z,102571.04
2019-04-29T08:07:47.650Z,102570.34
2019-04-29T08:08:55.550Z,102569.23
2019-04-29T08:09:47.942Z,102568.47
2019-04-29T08:10:55.884Z,102566.91
2019-04-29T08:11:49.180Z,102566.47
2019-04-29T08:12:50.802Z,102565.93
2019-04-29T08:13:50.514Z,102564.92
2019-04-29T08:14:53.419Z,102563.70
2019-04-29T08:15:51.766Z,102563.31
2019-04-29T08:16:53.364Z,102562.70
2019-04-29T08:18:05.972Z,102561.91
2019-04-29T08:18:54.933Z,102561.73
2019-04-29T08:19:54.300Z,102561.09
2019-04-29T08:20:55.967Z,102560.88
2019-04-29T08:21:57.781Z,102560.52
2019-04-29T08:22:58.435Z,102560.16
2019-04-29T08:23:56.147Z,102560.45
2019-04-29T08:24:57.828Z,102559.88
2019-04-29T08:26:02.595Z,102559.66
2019-04-29T08:26:57.796Z,102558.86
2019-04-29T08:27:59.347Z,102558.07
2019-04-29T08:29:00.716Z,102557.50
2019-04-29T08:29:59.483Z,102556.33
2019-04-29T08:31:00.122Z,102555.83
2019-04-29T08:32:02.569Z,102554.92
2019-04-29T08:33:01.506Z,102554.34
2019-04-29T08:34:03.391Z,102554.14
2019-04-29T08:35:03.482Z,102553.44
2019-04-29T08:36:04.071Z,102553.37
2019-04-29T08:37:04.922Z,102552.69
2019-04-29T08:38:05.537Z,102551.87
2019-04-29T08:39:08.693Z,102551.28
2019-04-29T08:40:15.956Z,102550.64
2019-04-29T08:41:05.643Z,102550.23
2019-04-29T08:42:09.143Z,102549.58
2019-04-29T08:43:07.152Z,102548.98
2019-04-29T08:44:16.312Z,102548.11
2019-04-29T08:45:08.678Z,102547.80
2019-04-29T08:46:10.657Z,102547.11
2019-04-29T08:47:10.696Z,102546.58
2019-04-29T08:48:11.493Z,102545.73
2019-04-29T08:49:14.708Z,102544.80
2019-04-29T08:50:11.464Z,102543.85
2019-04-29T08:51:12.791Z,102543.45
2019-04-29T08:51:21.339Z,102528.77
2019-04-29T08:52:22.434Z,102528.77
2019-04-29T08:53:23.412Z,102528.67
2019-04-29T08:54:24.352Z,102528.00
2019-04-29T08:55:26.529Z,102527.34
2019-04-29T08:56:24.852Z,102527.01
2019-04-29T08:57:25.883Z,102526.42
2019-04-29T08:58:26.788Z,102525.73
2019-04-29T08:59:27.493Z,102524.89
2019-04-29T09:00:27.817Z,102524.36
2019-04-29T09:01:29.287Z,102523.79
2019-04-29T09:02:35.123Z,102523.08
2019-04-29T09:03:39.604Z,102522.20
2019-04-29T09:04:33.357Z,102521.92
2019-04-29T09:05:29.182Z,102521.05
2019-04-29T09:06:32.655Z,102520.47
2019-04-29T09:07:30.805Z,102520.36
2019-04-29T09:08:32.836Z,102519.81
2019-04-29T09:09:31.907Z,102519.25
2019-04-29T09:10:36.854Z,102518.23
2019-04-29T09:11:32.484Z,102518.00
2019-04-29T09:12:33.608Z,102516.89
2019-04-29T09:13:34.280Z,102516.06
2019-04-29T09:14:35.130Z,102515.92
2019-04-29T09:15:35.780Z,102515.16
2019-04-29T09:16:36.328Z,102514.48
2019-04-29T09:17:38.074Z,102513.75
2019-04-29T09:18:37.769Z,102512.98
2019-04-29T09:19:39.520Z,102512.05
2019-04-29T09:20:37.603Z,102510.88
2019-04-29T09:21:39.189Z,102509.92
2019-04-29T09:22:40.038Z,102509.44
2019-04-29T09:23:40.900Z,102508.42
2019-04-29T09:24:43.577Z,102507.09
2019-04-29T09:25:40.628Z,102506.25
2019-04-29T09:26:42.415Z,102505.39
2019-04-29T09:27:45.014Z,102504.44
2019-04-29T09:28:42.924Z,102503.38
2019-04-29T09:29:46.378Z,102502.28
2019-04-29T09:30:44.677Z,102501.09
2019-04-29T09:31:46.719Z,102499.81
2019-04-29T09:32:45.641Z,102498.88
2019-04-29T09:33:49.054Z,102497.98
2019-04-29T09:34:46.670Z,102497.21
2019-04-29T09:35:48.519Z,102496.45
2019-04-29T09:36:49.817Z,102494.97
2019-04-29T09:37:48.237Z,102493.98
2019-04-29T09:38:50.216Z,102492.67
2019-04-29T09:39:50.904Z,102491.30
2019-04-29T09:40:54.600Z,102490.31
2019-04-29T09:41:51.179Z,102488.98
2019-04-29T09:42:52.831Z,102487.84
2019-04-29T09:43:53.778Z,102486.42
2019-04-29T09:44:54.395Z,102485.25
2019-04-29T09:45:58.880Z,102484.17
2019-04-29T09:46:54.555Z,102483.18
2019-04-29T09:47:56.180Z,102482.19
2019-04-29T09:48:57.091Z,102481.25
2019-04-29T09:49:57.867Z,102480.36
2019-04-29T09:50:06.407Z,102462.61
2019-04-29T09:51:17.279Z,102462.70
2019-04-29T09:52:07.788Z,102462.66
2019-04-29T09:53:07.694Z,102462.43
2019-04-29T09:54:13.963Z,102462.08
2019-04-29T09:55:08.966Z,102461.64
2019-04-29T09:56:10.719Z,102460.92
2019-04-29T09:57:11.357Z,102460.52
2019-04-29T09:58:11.994Z,102459.73
2019-04-29T09:59:12.028Z,102458.73
2019-04-29T10:00:12.517Z,102458.59
2019-04-29T10:01:13.940Z,102457.73
2019-04-29T10:02:12.177Z,102457.13
2019-04-29T10:03:13.870Z,102456.55
2019-04-29T10:04:14.443Z,102455.91
2019-04-29T10:05:14.605Z,102454.95
2019-04-29T10:06:15.178Z,102454.71
2019-04-29T10:07:14.953Z,102453.83
2019-04-29T10:08:16.442Z,102452.95
2019-04-29T10:09:17.209Z,102451.89
2019-04-29T10:10:17.947Z,102451.50
2019-04-29T10:11:18.588Z,102450.56
2019-04-29T10:12:19.258Z,102450.36
2019-04-29T10:13:19.447Z,102449.17
2019-04-29T10:14:20.185Z,102448.34
2019-04-29T10:15:20.827Z,102447.28
2019-04-29T10:16:21.405Z,102446.48
2019-04-29T10:17:21.921Z,102445.57
2019-04-29T10:18:25.074Z,102444.94
2019-04-29T10:19:22.500Z,102444.34
2019-04-29T10:20:24.000Z,102443.02
2019-04-29T10:21:24.948Z,102442.17
2019-04-29T10:22:25.802Z,102440.86
2019-04-29T10:23:26.389Z,102439.17
2019-04-29T10:24:27.053Z,102437.97
2019-04-29T10:25:27.617Z,102436.67
2019-04-29T10:26:28.158Z,102434.88
2019-04-29T10:27:28.878Z,102433.03
2019-04-29T10:28:29.460Z,102431.71
2019-04-29T10:29:29.940Z,102429.61
2019-04-29T10:30:31.097Z,102428.20
2019-04-29T10:31:29.854Z,102427.08
2019-04-29T10:32:31.397Z,102425.66
2019-04-29T10:33:32.051Z,102424.19
2019-04-29T10:34:33.088Z,102423.23
2019-04-29T10:35:32.217Z,102421.80
2019-04-29T10:36:33.796Z,102420.77
2019-04-29T10:37:34.377Z,102419.72
2019-04-29T10:38:34.975Z,102418.38
2019-04-29T10:39:35.611Z,102417.21
2019-04-29T10:40:35.804Z,102416.70
2019-04-29T10:41:36.169Z,102415.52
2019-04-29T10:41:43.984Z,102399.75
2019-04-29T10:42:45.493Z,102398.84
2019-04-29T10:43:49.493Z,102398.73
2019-04-29T10:44:46.026Z,102398.47
2019-04-29T10:45:47.683Z,102398.48
2019-04-29T10:46:48.303Z,102397.98
2019-04-29T10:47:48.521Z,102397.34
2019-04-29T10:48:49.415Z,102397.19
2019-04-29T10:49:50.036Z,102397.19
2019-04-29T10:50:52.000Z,102397.15
2019-04-29T10:51:50.366Z,102396.43
2019-04-29T10:52:51.874Z,102396.15
2019-04-29T10:53:52.681Z,102395.10
2019-04-29T10:54:55.453Z,102393.83
2019-04-29T10:55:52.670Z,102392.78
2019-04-29T10:56:54.527Z,102392.16
2019-04-29T10:57:55.247Z,102391.44
2019-04-29T10:58:56.030Z,102390.86
2019-04-29T10:59:56.513Z,102390.02
2019-04-29T11:00:57.249Z,102388.77
2019-04-29T11:02:01.347Z,102388.73
2019-04-29T11:02:56.783Z,102388.23
2019-04-29T11:04:00.684Z,102388.05
2019-04-29T11:04:58.261Z,102387.12
2019-04-29T11:06:01.741Z,102387.25
2019-04-29T11:06:59.404Z,102386.84
2019-04-29T11:08:02.483Z,102386.28
2019-04-29T11:09:00.670Z,102385.53
2019-04-29T11:10:02.521Z,102385.19
2019-04-29T11:11:03.243Z,102384.17
2019-04-29T11:12:03.824Z,102383.53
2019-04-29T11:13:04.406Z,102382.47
2019-04-29T11:14:05.262Z,102381.66
2019-04-29T11:15:05.732Z,102380.82
2019-04-29T11:16:06.236Z,102379.41
2019-04-29T11:17:15.828Z,102378.56
2019-04-29T11:18:06.650Z,102377.16
2019-04-29T11:19:07.495Z,102375.97
2019-04-29T11:20:11.160Z,102374.66
2019-04-29T11:21:09.071Z,102374.05
2019-04-29T11:22:09.205Z,102372.56
2019-04-29T11:23:16.430Z,102372.00